Flight Track Log - Related Links

Times and Time Zones

All times are in EDT time to prevent confusion due to time zone crossing. See the AAY855 flight status page for this flight to view local times or setup timezone preferences in your user account.

Time Position Orientation Groundspeed Altitude Reporting Facility
EDT Latitude Longitude Course Direction KTS MPH feet Rate Location/Type
Thu 05:34:14 PM 41.6625 -86.3336 130° Southeast 278 320 4,000  Level Chicago Center
Thu 05:35:16 PM 41.6194 -86.2508 125° Southeast 276 318 6,300 2,855 Climbing Chicago Center
Thu 05:36:18 PM 41.5561 -86.1411 128° Southeast 309 356 9,900 2,468 Climbing Chicago Center
Thu 05:37:20 PM 41.4944 -86.0383 129° Southeast 355 409 11,400 1,355 Climbing Chicago Center
Thu 05:38:22 PM 41.4239 -85.9217 129° Southeast 403 464 12,700 1,597 Climbing Chicago Center
Thu 05:39:00 PM 41.2442 -85.5917 130° Southeast  Level FlightAware Approximate
Thu 05:39:24 PM 41.3319 -85.8142 139° Southeast 441 507 14,700  Level Chicago Center
Thu 05:40:26 PM 41.2375 -85.7128 141° Southeast 443 510 15,000 1,452 Climbing Chicago Center
Thu 05:41:28 PM 41.1206 -85.5867 141° Southeast 453 521 17,700 2,064 Climbing Chicago Center
Thu 05:42:31 PM 41.0153 -85.4800 143° Southeast 474 545 19,300 1,104 Climbing Chicago Center
Thu 05:43:33 PM 40.9092 -85.3683 141° Southeast 487 560 20,000 484 Climbing Chicago Center
Thu 05:44:35 PM 40.8031 -85.2536 141° Southeast 493 567 20,300 1,161 Climbing Chicago Center
Thu 05:45:37 PM 40.6967 -85.1406 141° Southeast 495 570 22,400 1,855 Climbing Chicago Center
Thu 05:46:25 PM 40.5836 -85.0678 154° Southeast 491 565 23,700 1,691 Climbing Indianapolis Center
Thu 05:47:27 PM 40.4481 -85.0667 180° South 490 564 25,500 1,694 Climbing Indianapolis Center
Thu 05:48:29 PM 40.3094 -85.0542 176° South 492 566 27,200 1,597 Climbing Indianapolis Center
Thu 05:49:31 PM 40.1717 -85.0400 176° South 493 567 28,800 1,403 Climbing Indianapolis Center
Thu 05:50:33 PM 40.0347 -85.0267 176° South 493 567 30,100 1,306 Climbing Indianapolis Center
Thu 05:51:35 PM 39.8711 -85.0089 175° South 493 567 31,500 1,104 Climbing Indianapolis Center
Thu 05:52:38 PM 39.7342 -84.9958 176° South 493 567 32,400 720 Climbing Indianapolis Center
Thu 05:53:40 PM 39.5983 -84.9825 176° South 492 566 33,000 290 Climbing Indianapolis Center
Thu 05:54:42 PM 39.4594 -84.9689 176° South 493 567 33,000  Level Indianapolis Center
Thu 05:55:44 PM 39.3194 -84.9547 176° South 499 574 33,000  Level Indianapolis Center
Thu 05:56:46 PM 39.1822 -84.9417 176° South 499 574 33,000  Level Indianapolis Center
Thu 05:57:48 PM 39.0442 -84.9275 175° South 499 574 33,000  Level Indianapolis Center
Thu 05:58:50 PM 38.8767 -84.9111 176° South 499 574 33,000  Level Indianapolis Center
Thu 05:59:52 PM 38.7386 -84.8978 176° South 498 573 33,000  Level Indianapolis Center
Thu 06:00:54 PM 38.5958 -84.8853 176° South 498 573 33,000  Level Indianapolis Center
Thu 06:01:57 PM 38.4581 -84.8736 176° South 495 570 33,000  Level Indianapolis Center
Thu 06:02:59 PM 38.3233 -84.8581 175° South 492 566 33,000  Level Indianapolis Center
Thu 06:04:01 PM 38.1656 -84.8428 176° South 487 560 33,000  Level Indianapolis Center
Thu 06:05:03 PM 38.0294 -84.8303 176° South 487 560 33,000  Level Indianapolis Center
Thu 06:06:05 PM 37.8944 -84.8167 175° South 487 560 33,000  Level Indianapolis Center
Thu 06:07:07 PM 37.7603 -84.8031 175° South 487 560 33,000  Level Indianapolis Center
Thu 06:08:09 PM 37.6267 -84.7925 176° South 486 559 33,000  Level Indianapolis Center
Thu 06:09:11 PM 37.4717 -84.7775 176° South 482 555 33,000  Level Indianapolis Center
Thu 06:10:13 PM 37.3386 -84.7650 176° South 480 552 33,000  Level Indianapolis Center
Thu 06:11:15 PM 37.2050 -84.7522 176° South 480 552 33,000  Level Indianapolis Center
Thu 06:12:17 PM 37.0722 -84.7411 176° South 480 552 33,000  Level Indianapolis Center
Thu 06:13:20 PM 36.9442 -84.7283 175° South 480 552 33,000  Level Indianapolis Center
Thu 06:14:22 PM 36.7842 -84.7147 176° South 479 551 33,000  Level Indianapolis Center
Thu 06:15:24 PM 36.6522 -84.7011 175° South 479 551 33,000  Level Indianapolis Center
Thu 06:16:26 PM 36.5219 -84.6894 176° South 474 545 33,000  Level Indianapolis Center
Thu 06:17:28 PM 36.3889 -84.6775 176° South 474 545 33,000  Level Indianapolis Center
Thu 06:18:30 PM 36.2578 -84.6661 176° South 474 545 33,000  Level Indianapolis Center
Thu 06:19:32 PM 36.1275 -84.6528 175° South 471 542 33,000  Level Indianapolis Center
Thu 06:20:34 PM 35.9936 -84.6411 176° South 471 542 33,000  Level Indianapolis Center
Thu 06:21:22 PM 35.8794 -84.6333 177° South 473 544 33,000  Level Atlanta Center
Thu 06:22:22 PM 35.7503 -84.6222 176° South 479 551 33,000  Level Atlanta Center
Thu 06:23:22 PM 35.6189 -84.6111 176° South 474 545 33,000  Level Atlanta Center
Thu 06:24:22 PM 35.4917 -84.6000 176° South 474 545 33,000  Level Atlanta Center
Thu 06:25:22 PM 35.3625 -84.5864 175° South 474 545 33,000  Level Atlanta Center
Thu 06:26:22 PM 35.2331 -84.5778 177° South 474 545 33,000  Level Atlanta Center
Thu 06:27:22 PM 35.1036 -84.5669 176° South 474 545 33,000  Level Atlanta Center
Thu 06:28:22 PM 34.9786 -84.5533 175° South 469 540 33,000  Level Atlanta Center
Thu 06:29:22 PM 34.8472 -84.5425 176° South 464 534 33,000  Level Atlanta Center
Thu 06:30:22 PM 34.7117 -84.5239 174° South 456 525 33,000  Level Atlanta Center
Thu 06:31:22 PM 34.5803 -84.5156 177° South 466 536 33,000  Level Atlanta Center
Thu 06:32:22 PM 34.4675 -84.5075 177° South 461 531 33,000  Level Atlanta Center
Thu 06:33:22 PM 34.3403 -84.4967 176° South 461 531 33,000  Level Atlanta Center
Thu 06:34:22 PM 34.2131 -84.4858 176° South 456 525 33,000  Level Atlanta Center
Thu 06:35:22 PM 34.0814 -84.4778 177° South 469 540 33,000  Level Atlanta Center
Thu 06:36:22 PM 33.9417 -84.4644 175° South 469 540 33,000  Level Atlanta Center
Thu 06:37:22 PM 33.8164 -84.4539 176° South 464 534 33,000  Level Atlanta Center
Thu 06:38:22 PM 33.6872 -84.4433 176° South 466 536 33,000  Level Atlanta Center
Thu 06:39:22 PM 33.5578 -84.4378 178° South 466 536 33,000  Level Atlanta Center
Thu 06:40:22 PM 33.4450 -84.4347 179° South 460 529 33,000  Level Atlanta Center
Thu 06:41:22 PM 33.3136 -84.4317 179° South 460 529 33,000  Level Atlanta Center
Thu 06:42:22 PM 33.1861 -84.4311 180° South 460 529 33,000  Level Atlanta Center
Thu 06:43:22 PM 33.0547 -84.4278 179° South 460 529 33,000  Level Atlanta Center
Thu 06:44:22 PM 32.9275 -84.4275 180° South 460 529 33,000  Level Atlanta Center
Thu 06:45:22 PM 32.8022 -84.4244 179° South 455 524 33,000  Level Atlanta Center
Thu 06:46:22 PM 32.6728 -84.4139 176° South 460 529 33,000  Level Atlanta Center
Thu 06:47:22 PM 32.5433 -84.4158 181° South 460 529 33,000  Level Atlanta Center
Thu 06:48:22 PM 32.4161 -84.4128 179° South 460 529 33,000  Level Atlanta Center
Thu 06:49:22 PM 32.2867 -84.4097 179° South 460 529 33,000  Level Atlanta Center
Thu 06:51:17 PM 32.0303 -84.4022 179° South 462 532 33,000  Level Jacksonville Center
Thu 06:52:17 PM 31.9008 -84.4000 179° South 462 532 33,000  Level Jacksonville Center
Thu 06:53:18 PM 31.7733 -84.4003 180° South 457 526 33,000  Level Jacksonville Center
Thu 06:54:18 PM 31.6503 -84.3958 178° South 457 526 33,000  Level Jacksonville Center
Thu 06:55:17 PM 31.5208 -84.3964 180° South 457 526 33,000  Level Jacksonville Center
Thu 06:56:18 PM 31.3917 -84.3675 169° South 462 532 33,000  Level Jacksonville Center
Thu 06:57:17 PM 31.2628 -84.3264 165° South 467 537 33,000  Level Jacksonville Center
Thu 06:58:17 PM 31.1419 -84.2883 165° South 480 552 33,000  Level Jacksonville Center
Thu 06:59:17 PM 31.0131 -84.2500 166° South 485 558 33,000  Level Jacksonville Center
Thu 07:00:17 PM 30.8839 -84.2119 166° South 485 558 33,000  Level Jacksonville Center
Thu 07:01:17 PM 30.7528 -84.1714 165° South 490 564 33,000 -33 Level Jacksonville Center
Thu 07:03:17 PM 30.4822 -84.0931 166° South 490 564 32,900  Descending Jacksonville Center
Thu 07:04:17 PM 30.3553 -84.0528 165° South 483 556 33,000 50 Climbing Jacksonville Center
Thu 07:05:17 PM 30.2261 -84.0178 167° South 483 556 33,000  Level Jacksonville Center
Thu 07:06:17 PM 30.0969 -83.9778 165° South 483 556 33,000  Level Jacksonville Center
Thu 07:07:17 PM 29.9719 -83.9403 165° South 478 550 33,000  Level Jacksonville Center
Thu 07:08:18 PM 29.8450 -83.9056 167° South 473 544 33,000  Level Jacksonville Center
Thu 07:09:17 PM 29.7244 -83.8372 154° Southeast 473 544 33,000 -605 Level Jacksonville Center
Thu 07:10:17 PM 29.6081 -83.7597 150° Southeast 478 550 31,800 -1,537 Descending Jacksonville Center
Thu 07:11:18 PM 29.4958 -83.6894 151° Southeast 494 568 29,900 -2,000 Descending Jacksonville Center
Thu 07:12:17 PM 29.3731 -83.6100 151° Southeast 500 575 27,800 -2,168 Descending Jacksonville Center
Thu 07:13:17 PM 29.2503 -83.5306 151° Southeast 506 582 25,600 -1,900 Descending Jacksonville Center
Thu 07:14:17 PM 29.1297 -83.4511 150° Southeast 501 577 24,000 -1,050 Descending Jacksonville Center
Thu 07:15:17 PM 29.0108 -83.3769 151° Southeast 490 564 23,500 -1,550 Descending Jacksonville Center
Thu 07:16:17 PM 28.8944 -83.3028 151° Southeast 490 564 20,900 -2,500 Descending Jacksonville Center
Thu 07:17:17 PM 28.7797 -83.2314 151° Southeast 478 550 18,500 -2,200 Descending Jacksonville Center
Thu 07:18:17 PM 28.6692 -83.1600 150° Southeast 472 543 16,500 -2,000 Descending Jacksonville Center
Thu 07:19:17 PM 28.5672 -83.0983 152° Southeast 444 511 14,500 -1,615 Descending Jacksonville Center
Thu 07:20:27 PM 28.4500 -83.0167 149° Southeast 383 441 13,000 -1,306 Descending Tampa TRACON
Thu 07:21:21 PM 28.3667 -82.9667 152° Southeast 357 411 11,800 -1,211 Descending Tampa TRACON
Thu 07:22:21 PM 28.2833 -82.9167 152° Southeast 325 374 10,700 -1,300 Descending Tampa TRACON
Thu 07:23:21 PM 28.2000 -82.8833 161° South 303 349 9,200 -1,524 Descending Tampa TRACON
Thu 07:24:27 PM 28.1167 -82.8500 161° South 302 348 7,500 -1,571 Descending Tampa TRACON
Thu 07:25:27 PM 28.0333 -82.8167 161° South 298 343 5,900 -1,526 Descending Tampa TRACON
Thu 07:26:21 PM 27.9667 -82.8000 168° South 293 337 4,600 -991 Descending Tampa TRACON
Thu 07:27:22 PM 27.9000 -82.7833 168° South 246 283 4,000 -800 Descending Tampa TRACON
Thu 07:28:21 PM 27.8333 -82.7667 168° South 212 244 3,000 -1,100 Descending Tampa TRACON
Thu 07:29:22 PM 27.8333 -82.7167 90° East 169 194 1,800 -992 Descending Tampa TRACON
Thu 07:30:22 PM 27.8500 -82.6833 61° Northeast 149 171 1,000 -750 Descending Tampa TRACON
Thu 07:31:22 PM 27.8833 -82.6833 360° North 124 143 300 -700 Descending Tampa TRACON

Login

Don't have an account? Register now (free) for customized features, flight alerts, and more!